Time;durP1;ratioP1;P1;durP2;ratioP2;P2;SDS_P1;SDS_P2;PMS_P1;PMS_P2;Temp;Humidity;BMP_temperature;BMP_pressure;BME280_temperature;BME280_humidity;BME280_pressure;Samples;Min_cycle;Max_cycle;Signal;HPM_P1;HPM_P2
2023/05/08 00:01:31;;;;;;;12.20;10.90;;;16.70;90.10;;;;;;5049825;28;20040;-70
2023/05/08 00:03:57;;;;;;;11.73;9.65;;;16.70;90.00;;;;;;5048572;28;20025;-69
2023/05/08 00:06:23;;;;;;;12.25;10.82;;;16.70;90.00;;;;;;5049638;28;20032;-70
2023/05/08 00:08:48;;;;;;;12.48;10.43;;;16.70;90.10;;;;;;5049269;28;20446;-71
2023/05/08 00:11:14;;;;;;;11.80;10.10;;;16.70;90.10;;;;;;5048865;28;20029;-70
2023/05/08 00:13:40;;;;;;;12.18;10.90;;;16.70;90.00;;;;;;5049352;28;20021;-69
2023/05/08 00:16:08;;;;;;;12.63;10.85;;;16.70;90.00;;;;;;5049387;28;20104;-70
2023/05/08 00:18:34;;;;;;;13.38;11.98;;;16.70;89.90;;;;;;5062682;28;20053;-69
2023/05/08 00:21:00;;;;;;;12.98;11.30;;;16.70;89.80;;;;;;5052268;28;20485;-70
2023/05/08 00:23:25;;;;;;;12.00;10.70;;;16.70;89.80;;;;;;5035440;28;20028;-70
2023/05/08 00:25:51;;;;;;;12.20;10.77;;;16.60;89.70;;;;;;5052890;28;20613;-71
2023/05/08 00:28:17;;;;;;;13.43;11.20;;;16.60;89.60;;;;;;5063404;28;20037;-69
2023/05/08 00:30:42;;;;;;;12.00;10.55;;;16.50;89.50;;;;;;5067510;28;20021;-69
2023/05/08 00:33:08;;;;;;;14.05;12.02;;;16.50;89.50;;;;;;5052720;28;20017;-69
2023/05/08 00:35:34;;;;;;;12.20;10.90;;;16.50;89.50;;;;;;5053067;28;20055;-68
2023/05/08 00:38:00;;;;;;;13.55;12.05;;;16.50;89.50;;;;;;5052957;28;20488;-70
2023/05/08 00:40:26;;;;;;;13.85;12.43;;;16.50;89.50;;;;;;5052429;28;20020;-70
2023/05/08 00:42:52;;;;;;;13.93;12.10;;;16.50;89.30;;;;;;5052494;28;20102;-70
2023/05/08 00:45:17;;;;;;;15.25;12.95;;;16.40;89.30;;;;;;5052927;28;20029;-71
2023/05/08 00:47:43;;;;;;;14.65;12.63;;;16.40;89.30;;;;;;5065742;28;20032;-70
2023/05/08 00:50:09;;;;;;;16.10;13.73;;;16.40;89.40;;;;;;5068812;28;20028;-69
2023/05/08 00:52:35;;;;;;;15.02;13.40;;;16.30;89.40;;;;;;5055997;28;20037;-69
2023/05/08 00:55:03;;;;;;;13.52;12.13;;;16.30;89.30;;;;;;5052432;28;20029;-70
2023/05/08 00:57:33;;;;;;;12.27;10.98;;;16.30;89.40;;;;;;5052467;28;20392;-69
2023/05/08 01:00:00;;;;;;;11.85;10.35;;;16.30;89.30;;;;;;5052406;28;20041;-70
2023/05/08 01:02:26;;;;;;;12.10;10.75;;;16.30;89.30;;;;;;5053690;28;20040;-71
2023/05/08 01:04:53;;;;;;;13.02;11.43;;;16.30;89.80;;;;;;5072096;28;20078;-70
2023/05/08 01:07:19;;;;;;;12.07;10.75;;;16.30;89.30;;;;;;5071918;28;20032;-70
2023/05/08 01:09:45;;;;;;;14.38;11.98;;;16.30;89.40;;;;;;5052736;28;20113;-70
2023/05/08 01:12:19;;;;;;;11.00;9.82;;;16.20;89.50;;;;;;5065064;28;20123;-71
2023/05/08 01:14:58;;;;;;;12.63;11.32;;;16.20;89.50;;;;;;5072276;28;20021;-70
2023/05/08 01:17:35;;;;;;;11.80;10.45;;;16.20;89.50;;;;;;5041820;28;20013;-70
2023/05/08 01:20:28;;;;;;;12.15;10.60;;;16.10;89.50;;;;;;5052096;28;20070;-71
2023/05/08 01:23:32;;;;;;;14.18;12.68;;;16.10;89.60;;;;;;5033803;28;20025;-70
2023/05/08 01:26:18;;;;;;;13.05;10.98;;;16.00;89.90;;;;;;5064012;28;20376;-70
2023/05/08 01:28:59;;;;;;;10.98;9.77;;;16.00;90.00;;;;;;5070542;28;20028;-70
2023/05/08 01:31:33;;;;;;;14.15;12.65;;;16.00;90.00;;;;;;5047744;28;20025;-68
2023/05/08 01:34:07;;;;;;;13.57;12.07;;;15.90;90.00;;;;;;5052587;28;20106;-67
2023/05/08 01:36:36;;;;;;;13.20;11.68;;;15.90;90.00;;;;;;5062686;28;20044;-69
2023/05/08 01:39:13;;;;;;;16.17;13.35;;;15.80;90.00;;;;;;5054091;28;20502;-69
2023/05/08 01:41:45;;;;;;;14.52;12.98;;;15.80;90.10;;;;;;5050919;28;20599;-69
2023/05/08 01:44:20;;;;;;;14.45;12.93;;;15.80;90.00;;;;;;5060490;28;20035;-67
2023/05/08 01:46:48;;;;;;;14.40;12.60;;;15.70;90.00;;;;;;5071172;28;20028;-68
2023/05/08 01:49:33;;;;;;;14.95;13.25;;;15.70;90.10;;;;;;5061188;28;20021;-68
2023/05/08 01:52:04;;;;;;;18.10;15.82;;;15.70;90.10;;;;;;5051131;28;20446;-68
2023/05/08 01:54:39;;;;;;;18.08;14.80;;;15.60;90.10;;;;;;5044625;28;20111;-68
2023/05/08 01:57:08;;;;;;;15.57;13.45;;;15.60;90.10;;;;;;5053272;28;20024;-69
2023/05/08 01:59:35;;;;;;;15.18;13.50;;;15.60;90.00;;;;;;5033375;28;20021;-68
2023/05/08 02:02:02;;;;;;;15.75;13.32;;;15.60;90.00;;;;;;5050999;28;20105;-68
2023/05/08 02:04:29;;;;;;;15.60;12.90;;;15.60;90.00;;;;;;5055637;28;20519;-70
2023/05/08 02:06:56;;;;;;;15.30;12.63;;;15.60;90.00;;;;;;5050814;28;20027;-69
2023/05/08 02:09:23;;;;;;;14.32;12.63;;;15.50;89.70;;;;;;5050886;28;20028;-69
2023/05/08 02:11:49;;;;;;;17.42;14.40;;;15.50;89.60;;;;;;5049884;28;20021;-68
2023/05/08 02:14:19;;;;;;;13.32;11.90;;;15.50;89.70;;;;;;5059815;28;20021;-68
2023/05/08 02:16:47;;;;;;;16.08;13.75;;;15.50;89.60;;;;;;5050799;28;20032;-68
2023/05/08 02:19:14;;;;;;;15.30;13.45;;;15.50;89.70;;;;;;5050589;28;20033;-69
2023/05/08 02:21:41;;;;;;;13.85;11.57;;;15.50;89.80;;;;;;5034447;28;20025;-69
2023/05/08 02:24:08;;;;;;;15.45;13.85;;;15.50;89.80;;;;;;5050739;28;20025;-68
2023/05/08 02:26:34;;;;;;;14.45;12.38;;;15.50;89.90;;;;;;5048199;28;20618;-69
2023/05/08 02:29:02;;;;;;;16.23;13.38;;;15.50;90.00;;;;;;5050088;28;20028;-69
2023/05/08 02:31:29;;;;;;;14.88;13.30;;;15.50;90.00;;;;;;5053856;28;20067;-69
2023/05/08 02:33:56;;;;;;;15.40;11.77;;;15.40;90.00;;;;;;5070619;28;20016;-69
2023/05/08 02:36:22;;;;;;;15.13;13.32;;;15.50;90.00;;;;;;5070411;28;20020;-67
2023/05/08 02:38:52;;;;;;;14.23;12.73;;;15.40;90.10;;;;;;5052455;28;20029;-69
2023/05/08 02:41:21;;;;;;;15.18;13.57;;;15.50;90.10;;;;;;5050307;28;20028;-68
2023/05/08 02:43:47;;;;;;;14.93;12.77;;;15.40;90.10;;;;;;5050538;28;20499;-70
2023/05/08 02:46:29;;;;;;;15.50;13.82;;;15.40;90.10;;;;;;5049663;28;20340;-70
2023/05/08 02:49:08;;;;;;;15.68;13.98;;;15.40;90.00;;;;;;5050221;28;20110;-70
2023/05/08 02:52:00;;;;;;;17.60;15.38;;;15.30;90.10;;;;;;5052893;28;20056;-70
2023/05/08 02:54:48;;;;;;;19.55;16.42;;;15.20;90.30;;;;;;5044558;28;20082;-70
2023/05/08 02:57:23;;;;;;;13.88;12.10;;;15.10;90.50;;;;;;5066609;28;20029;-71
2023/05/08 03:00:03;;;;;;;15.32;13.73;;;15.20;90.50;;;;;;5070527;28;20557;-70
2023/05/08 03:02:39;;;;;;;16.92;15.18;;;15.10;90.40;;;;;;5066835;28;20055;-71
2023/05/08 03:05:18;;;;;;;13.85;12.32;;;15.10;90.50;;;;;;5050015;28;20029;-70
2023/05/08 03:07:49;;;;;;;13.30;11.55;;;15.10;90.40;;;;;;5046757;28;20037;-70
2023/05/08 03:10:16;;;;;;;16.27;14.57;;;15.20;90.40;;;;;;5050035;28;20021;-70
2023/05/08 03:12:46;;;;;;;15.45;13.80;;;15.20;90.20;;;;;;5049587;28;20059;-69
2023/05/08 03:15:20;;;;;;;16.20;14.43;;;15.20;90.10;;;;;;5050048;28;20017;-68
2023/05/08 03:17:46;;;;;;;17.98;15.23;;;15.20;90.10;;;;;;5049875;28;20479;-69
2023/05/08 03:20:16;;;;;;;15.93;14.32;;;15.20;90.10;;;;;;5051525;28;20032;-68
2023/05/08 03:22:43;;;;;;;17.40;15.48;;;15.20;90.10;;;;;;5032121;28;20017;-68
2023/05/08 03:25:09;;;;;;;16.67;14.98;;;15.20;90.10;;;;;;5031943;28;20391;-69
2023/05/08 03:27:36;;;;;;;17.00;15.20;;;15.10;90.00;;;;;;5049955;28;20047;-70
2023/05/08 03:30:03;;;;;;;16.40;14.30;;;15.10;90.10;;;;;;5049408;28;20434;-70
2023/05/08 03:32:32;;;;;;;16.58;14.88;;;15.10;90.00;;;;;;5052215;28;20128;-70
2023/05/08 03:34:58;;;;;;;15.23;13.15;;;15.10;90.00;;;;;;5070031;28;20621;-70
2023/05/08 03:37:28;;;;;;;15.63;13.10;;;15.10;90.00;;;;;;5069700;28;20025;-69
2023/05/08 03:39:55;;;;;;;17.05;15.30;;;15.10;89.90;;;;;;5059396;28;20045;-70
2023/05/08 03:42:22;;;;;;;15.60;13.88;;;15.10;89.80;;;;;;5049804;28;20033;-69
2023/05/08 03:44:52;;;;;;;12.13;10.68;;;15.10;89.90;;;;;;5059979;28;20495;-68
2023/05/08 03:47:21;;;;;;;14.25;12.65;;;15.10;89.80;;;;;;5069910;28;20105;-69
2023/05/08 03:49:48;;;;;;;14.43;12.75;;;15.10;89.70;;;;;;5055333;28;20104;-69
2023/05/08 03:52:15;;;;;;;14.27;12.20;;;15.10;89.50;;;;;;5051170;28;20032;-69
2023/05/08 03:54:41;;;;;;;12.63;11.32;;;15.20;89.40;;;;;;5063095;28;20025;-68
2023/05/08 03:57:07;;;;;;;11.95;10.68;;;15.20;89.10;;;;;;5070744;28;20025;-68
2023/05/08 03:59:48;;;;;;;15.38;13.20;;;15.20;88.90;;;;;;5053431;28;20032;-70
2023/05/08 04:02:35;;;;;;;14.27;12.80;;;15.30;88.70;;;;;;5064189;28;20032;-70
2023/05/08 04:05:23;;;;;;;14.07;12.68;;;15.20;88.60;;;;;;5073499;28;20024;-69
2023/05/08 04:08:00;;;;;;;15.82;14.20;;;15.10;88.70;;;;;;5055425;28;20067;-69
2023/05/08 04:10:31;;;;;;;17.63;15.77;;;15.00;88.80;;;;;;5033420;28;20025;-68
2023/05/08 04:13:05;;;;;;;15.43;13.82;;;14.90;89.20;;;;;;5066199;28;20039;-69
2023/05/08 04:15:36;;;;;;;18.05;16.15;;;14.80;89.40;;;;;;5062764;28;20499;-67
2023/05/08 04:18:13;;;;;;;17.48;15.68;;;14.80;89.70;;;;;;5053091;28;20056;-69
2023/05/08 04:20:43;;;;;;;17.65;15.80;;;14.70;89.80;;;;;;5053611;28;20032;-68
2023/05/08 04:23:14;;;;;;;18.13;15.15;;;14.70;90.00;;;;;;5053081;28;20312;-69
2023/05/08 04:25:41;;;;;;;15.93;14.18;;;14.60;90.00;;;;;;5052813;28;20120;-67
2023/05/08 04:28:07;;;;;;;14.13;12.73;;;14.70;90.00;;;;;;5053111;28;20040;-67
2023/05/08 04:30:33;;;;;;;15.30;13.30;;;14.80;90.00;;;;;;5054111;28;20052;-69
2023/05/08 04:33:02;;;;;;;13.73;12.32;;;14.80;89.70;;;;;;5056368;28;20123;-69
2023/05/08 04:35:28;;;;;;;16.33;14.65;;;14.80;89.40;;;;;;5052807;28;20017;-69
2023/05/08 04:37:54;;;;;;;18.17;14.23;;;14.80;89.30;;;;;;5052400;28;20060;-69
2023/05/08 04:40:20;;;;;;;15.13;13.63;;;14.80;89.20;;;;;;5052732;28;20101;-70
2023/05/08 04:42:46;;;;;;;14.30;12.63;;;14.90;89.10;;;;;;5071271;28;20029;-69
2023/05/08 04:45:12;;;;;;;14.52;13.02;;;14.90;89.00;;;;;;5072823;28;20020;-70
2023/05/08 04:47:37;;;;;;;13.27;11.88;;;14.90;88.90;;;;;;5039435;28;20028;-71
2023/05/08 04:50:03;;;;;;;14.15;12.63;;;14.90;89.00;;;;;;5052690;28;20029;-71
2023/05/08 04:52:29;;;;;;;14.70;12.98;;;14.90;89.00;;;;;;5069800;28;20548;-70
2023/05/08 04:54:54;;;;;;;12.82;11.35;;;14.90;88.80;;;;;;5068202;28;20380;-69
2023/05/08 04:57:20;;;;;;;14.65;13.15;;;14.90;88.70;;;;;;5052299;28;20025;-69
2023/05/08 04:59:45;;;;;;;15.50;13.90;;;14.90;88.70;;;;;;5050901;28;20108;-69
2023/05/08 05:02:11;;;;;;;14.68;13.18;;;14.90;88.70;;;;;;5061810;28;20534;-69
2023/05/08 05:04:36;;;;;;;14.10;12.60;;;14.90;88.60;;;;;;5046014;28;20112;-69
2023/05/08 05:07:03;;;;;;;13.82;12.43;;;15.00;88.50;;;;;;5063433;28;20119;-69
2023/05/08 05:09:28;;;;;;;12.57;11.27;;;15.10;88.30;;;;;;5051086;28;20086;-69
2023/05/08 05:11:54;;;;;;;15.45;13.30;;;15.20;88.00;;;;;;5035934;28;20029;-69
2023/05/08 05:14:19;;;;;;;13.13;11.25;;;15.20;87.80;;;;;;5051849;28;20047;-69
2023/05/08 05:16:46;;;;;;;13.90;12.50;;;15.30;87.70;;;;;;5052736;28;20024;-69
2023/05/08 05:19:11;;;;;;;12.55;11.27;;;15.70;87.30;;;;;;5051359;28;20479;-71
2023/05/08 05:21:37;;;;;;;13.25;11.18;;;16.10;86.10;;;;;;5058160;28;20028;-70
2023/05/08 05:24:04;;;;;;;12.80;11.40;;;16.40;85.10;;;;;;5033386;28;20041;-69
2023/05/08 05:26:30;;;;;;;14.10;12.70;;;16.80;83.70;;;;;;5063923;28;20430;-69
2023/05/08 05:28:55;;;;;;;12.68;11.38;;;17.20;82.10;;;;;;5050931;28;20025;-69
2023/05/08 05:31:21;;;;;;;15.07;13.57;;;17.40;80.80;;;;;;5055614;28;20070;-69
2023/05/08 05:33:46;;;;;;;13.30;12.00;;;17.50;79.50;;;;;;5062558;28;20036;-70
2023/05/08 05:36:12;;;;;;;14.00;12.45;;;17.80;79.60;;;;;;5071954;28;20017;-70
2023/05/08 05:38:38;;;;;;;15.18;13.57;;;18.00;78.10;;;;;;5061834;28;20047;-69
2023/05/08 05:41:03;;;;;;;12.88;11.57;;;18.00;77.40;;;;;;5051732;28;20125;-71
2023/05/08 05:43:29;;;;;;;12.30;11.10;;;18.30;77.20;;;;;;5054227;28;20021;-71
2023/05/08 05:45:57;;;;;;;11.50;10.30;;;18.70;76.20;;;;;;5051471;28;20025;-71
2023/05/08 05:48:45;;;;;;;10.65;9.55;;;19.10;75.00;;;;;;5049752;28;20040;-70
2023/05/08 05:51:11;;;;;;;14.02;12.63;;;19.60;73.60;;;;;;5048633;28;20480;-71
2023/05/08 05:53:36;;;;;;;12.32;11.05;;;19.60;72.10;;;;;;5048457;28;20017;-70
2023/05/08 05:56:02;;;;;;;11.77;10.57;;;19.60;72.10;;;;;;5047762;28;20080;-70
2023/05/08 05:58:27;;;;;;;10.80;9.70;;;19.80;71.90;;;;;;5048605;28;20025;-72
2023/05/08 06:00:53;;;;;;;11.32;10.15;;;19.90;71.40;;;;;;5050893;28;20043;-71
2023/05/08 06:03:18;;;;;;;13.23;11.70;;;20.00;71.20;;;;;;5051861;28;20025;-71
2023/05/08 06:05:47;;;;;;;13.30;11.90;;;20.00;70.30;;;;;;5050929;28;20077;-72
2023/05/08 06:08:15;;;;;;;12.68;10.98;;;20.00;70.40;;;;;;5062420;28;20037;-71
2023/05/08 06:10:40;;;;;;;13.07;11.65;;;20.10;70.60;;;;;;5052754;28;20108;-71
2023/05/08 06:13:08;;;;;;;12.63;11.35;;;19.70;70.80;;;;;;5051034;28;20112;-72
2023/05/08 06:15:33;;;;;;;13.77;12.40;;;19.20;71.70;;;;;;5052705;28;20492;-72
2023/05/08 06:17:59;;;;;;;15.23;13.55;;;18.80;73.40;;;;;;5049377;28;20075;-71
2023/05/08 06:20:27;;;;;;;14.15;12.68;;;18.50;74.50;;;;;;5048018;28;20504;-71
2023/05/08 06:22:52;;;;;;;14.95;13.27;;;18.50;75.10;;;;;;5048901;28;20028;-71
2023/05/08 06:25:18;;;;;;;18.60;15.77;;;18.50;75.10;;;;;;5057651;28;20021;-71
2023/05/08 06:27:44;;;;;;;15.38;13.68;;;18.30;75.50;;;;;;5030051;28;20017;-71
2023/05/08 06:30:11;;;;;;;15.63;13.13;;;17.90;76.80;;;;;;5045144;28;20120;-71
2023/05/08 06:32:37;;;;;;;13.45;10.70;;;17.80;78.10;;;;;;5058346;28;20033;-71
2023/05/08 06:35:04;;;;;;;22.38;17.42;;;17.70;78.80;;;;;;5057511;28;20036;-72
2023/05/08 06:37:30;;;;;;;21.73;16.85;;;17.60;79.40;;;;;;5048778;28;20024;-71
2023/05/08 06:39:57;;;;;;;24.70;18.77;;;17.70;80.10;;;;;;5044002;28;20032;-71
2023/05/08 06:42:22;;;;;;;21.05;16.55;;;17.70;80.30;;;;;;5050583;28;20029;-70
2023/05/08 06:44:49;;;;;;;20.58;15.63;;;18.20;80.00;;;;;;5049960;28;20664;-71
2023/05/08 06:47:15;;;;;;;22.75;16.42;;;18.80;78.70;;;;;;5051301;28;20067;-70
2023/05/08 06:49:41;;;;;;;25.50;19.15;;;19.30;77.40;;;;;;5043648;28;20047;-71
2023/05/08 06:52:06;;;;;;;26.42;19.55;;;19.60;76.30;;;;;;5048030;28;20040;-72
2023/05/08 06:54:32;;;;;;;19.65;14.52;;;19.80;75.80;;;;;;5068258;28;20020;-71
2023/05/08 06:56:57;;;;;;;24.17;18.73;;;20.30;75.10;;;;;;5054924;28;20071;-71
2023/05/08 06:59:23;;;;;;;21.02;15.80;;;20.30;74.60;;;;;;5048940;28;20021;-72
2023/05/08 07:01:49;;;;;;;23.02;17.75;;;20.70;73.40;;;;;;5053653;28;20120;-71
2023/05/08 07:04:14;;;;;;;18.38;13.70;;;20.80;72.30;;;;;;5050089;28;20021;-71
2023/05/08 07:06:40;;;;;;;22.40;16.70;;;21.30;71.50;;;;;;5051497;28;20075;-71
2023/05/08 07:09:05;;;;;;;20.70;16.98;;;21.50;69.60;;;;;;5070249;28;20469;-71
2023/05/08 07:11:31;;;;;;;20.90;15.07;;;21.50;69.70;;;;;;5049287;28;20468;-71
2023/05/08 07:13:57;;;;;;;21.40;16.92;;;21.80;69.20;;;;;;5049972;28;20025;-71
2023/05/08 07:16:22;;;;;;;19.65;16.05;;;22.10;69.30;;;;;;5048572;28;20029;-70
2023/05/08 07:18:48;;;;;;;22.95;17.33;;;22.20;68.20;;;;;;5049656;28;20378;-71
2023/05/08 07:21:14;;;;;;;20.13;15.38;;;22.20;68.40;;;;;;5050384;28;20030;-71
2023/05/08 07:23:40;;;;;;;18.55;14.75;;;22.40;68.50;;;;;;5050021;28;20021;-72
2023/05/08 07:26:07;;;;;;;18.73;15.15;;;22.50;68.30;;;;;;5051180;28;20146;-69
2023/05/08 07:28:32;;;;;;;20.25;15.95;;;22.90;68.20;;;;;;5052305;28;20021;-71
2023/05/08 07:30:58;;;;;;;21.67;16.75;;;22.90;67.90;;;;;;5054580;28;20044;-71
2023/05/08 07:33:23;;;;;;;21.75;16.48;;;22.90;67.80;;;;;;5066901;28;20021;-71
2023/05/08 07:35:49;;;;;;;22.10;16.88;;;22.70;67.80;;;;;;5058665;28;20471;-71
2023/05/08 07:38:14;;;;;;;22.95;17.00;;;22.40;68.20;;;;;;5052216;28;20150;-72
2023/05/08 07:40:40;;;;;;;21.38;16.98;;;22.10;68.80;;;;;;5066235;28;20074;-70
2023/05/08 07:43:06;;;;;;;22.27;16.50;;;21.90;69.50;;;;;;5058178;28;20059;-70
2023/05/08 07:45:31;;;;;;;21.52;17.77;;;21.80;70.10;;;;;;5053067;28;20044;-69
2023/05/08 07:47:57;;;;;;;21.58;17.55;;;21.60;69.90;;;;;;5053226;28;20388;-70
2023/05/08 07:50:24;;;;;;;21.08;16.40;;;21.20;70.90;;;;;;5053461;28;20092;-70
2023/05/08 07:52:50;;;;;;;20.05;15.68;;;21.10;71.70;;;;;;5054732;28;20039;-69
2023/05/08 07:55:16;;;;;;;22.23;17.10;;;21.00;72.30;;;;;;5052236;28;20594;-70
2023/05/08 07:57:43;;;;;;;20.25;16.15;;;20.90;72.30;;;;;;5051820;28;20112;-70
2023/05/08 08:00:13;;;;;;;25.02;18.48;;;20.80;72.80;;;;;;5053999;28;20452;-69
2023/05/08 08:02:39;;;;;;;21.00;16.52;;;20.70;73.00;;;;;;5053184;28;20033;-71
2023/05/08 08:05:05;;;;;;;24.67;18.30;;;20.50;73.70;;;;;;5066342;28;20060;-69
2023/05/08 08:07:34;;;;;;;24.23;18.95;;;20.20;74.40;;;;;;5062630;28;20056;-69
2023/05/08 08:10:00;;;;;;;21.58;17.10;;;20.10;75.00;;;;;;5057743;28;20035;-70
2023/05/08 08:12:26;;;;;;;21.83;16.60;;;20.10;75.50;;;;;;5055924;28;20021;-70
2023/05/08 08:14:52;;;;;;;22.85;18.48;;;20.10;75.80;;;;;;5055686;28;20025;-70
2023/05/08 08:17:17;;;;;;;26.77;21.42;;;20.10;75.80;;;;;;5059027;28;20039;-70
2023/05/08 08:19:43;;;;;;;26.50;19.75;;;20.10;75.70;;;;;;5052530;28;20029;-70
2023/05/08 08:22:09;;;;;;;27.77;21.08;;;20.10;75.70;;;;;;5051968;28;20075;-69
2023/05/08 08:24:34;;;;;;;24.70;18.90;;;20.10;76.00;;;;;;5052487;28;20029;-70
2023/05/08 08:27:00;;;;;;;25.58;19.52;;;20.20;76.10;;;;;;5052382;28;20082;-71
2023/05/08 08:29:25;;;;;;;22.17;16.98;;;20.10;76.30;;;;;;5034934;28;20025;-70
2023/05/08 08:31:51;;;;;;;23.33;17.05;;;20.20;76.30;;;;;;5053864;28;20028;-71
2023/05/08 08:34:17;;;;;;;23.45;18.30;;;20.30;76.30;;;;;;5052667;28;20033;-69
2023/05/08 08:36:42;;;;;;;23.17;18.02;;;20.40;76.20;;;;;;5053385;28;20492;-70
2023/05/08 08:39:08;;;;;;;25.25;19.10;;;20.50;76.10;;;;;;5051442;28;20036;-70
2023/05/08 08:41:34;;;;;;;24.20;18.80;;;20.50;76.00;;;;;;5053297;28;20021;-70
2023/05/08 08:43:59;;;;;;;23.85;18.17;;;20.40;76.20;;;;;;5052235;28;20453;-70
2023/05/08 08:46:27;;;;;;;29.58;22.35;;;20.60;76.10;;;;;;5053100;28;20031;-70
2023/05/08 08:48:55;;;;;;;33.08;23.30;;;20.40;76.10;;;;;;5052545;28;20662;-70
2023/05/08 08:51:31;;;;;;;27.63;20.77;;;20.20;76.30;;;;;;5052633;28;20028;-71
2023/05/08 08:54:08;;;;;;;30.60;23.27;;;20.20;77.50;;;;;;5044575;28;20033;-69
2023/05/08 08:56:36;;;;;;;33.55;24.88;;;20.20;77.30;;;;;;5057050;28;20479;-70
2023/05/08 08:59:03;;;;;;;27.75;20.83;;;20.30;77.40;;;;;;5051399;28;20028;-70
2023/05/08 09:01:31;;;;;;;25.13;18.17;;;20.50;77.40;;;;;;5039609;28;20040;-68
2023/05/08 09:03:57;;;;;;;30.33;22.45;;;20.90;76.80;;;;;;5059741;28;20021;-70
2023/05/08 09:06:23;;;;;;;24.92;19.10;;;20.90;75.60;;;;;;5061782;28;20107;-70
2023/05/08 09:08:49;;;;;;;26.73;19.85;;;21.10;75.40;;;;;;5051935;28;20029;-70
2023/05/08 09:11:15;;;;;;;23.17;18.08;;;21.20;74.80;;;;;;5054622;28;20100;-70
2023/05/08 09:13:40;;;;;;;27.05;19.95;;;21.30;74.60;;;;;;5050864;28;20037;-70
2023/05/08 09:16:06;;;;;;;25.98;18.67;;;21.50;74.30;;;;;;5050727;28;20025;-69
2023/05/08 09:18:32;;;;;;;23.15;16.48;;;21.80;74.00;;;;;;5039806;28;20029;-70
2023/05/08 09:21:00;;;;;;;25.38;19.90;;;21.90;73.40;;;;;;5052181;28;20044;-70
2023/05/08 09:23:25;;;;;;;22.95;18.17;;;21.90;72.90;;;;;;5054401;28;20017;-70
2023/05/08 09:25:51;;;;;;;22.80;18.17;;;21.90;73.10;;;;;;5033982;28;20044;-70
2023/05/08 09:28:25;;;;;;;26.77;18.65;;;22.00;72.90;;;;;;5050890;28;20060;-68
2023/05/08 09:30:52;;;;;;;20.00;14.38;;;22.20;72.60;;;;;;5044291;28;20108;-70
2023/05/08 09:33:19;;;;;;;31.67;23.25;;;22.40;72.40;;;;;;5060048;28;20040;-70
2023/05/08 09:35:47;;;;;;;23.92;19.17;;;22.30;71.00;;;;;;5036482;28;20519;-72
2023/05/08 09:38:33;;;;;;;30.48;22.80;;;22.20;71.60;;;;;;5052601;28;20017;-71
2023/05/08 09:41:09;;;;;;;26.88;19.70;;;22.20;71.50;;;;;;5051217;28;20036;-69
2023/05/08 09:43:36;;;;;;;22.83;19.02;;;22.20;71.50;;;;;;5051372;28;20021;-68
2023/05/08 09:46:21;;;;;;;31.48;22.98;;;22.20;71.30;;;;;;5051184;28;20074;-69
2023/05/08 09:48:54;;;;;;;27.50;19.77;;;22.00;71.00;;;;;;5045433;28;20032;-71
2023/05/08 09:51:21;;;;;;;26.67;20.05;;;22.10;71.60;;;;;;5050725;28;20041;-70
2023/05/08 09:53:52;;;;;;;26.73;21.15;;;22.00;71.80;;;;;;5050730;28;20029;-70
2023/05/08 09:56:38;;;;;;;27.52;21.80;;;22.10;71.50;;;;;;5031961;28;20510;-69
2023/05/08 09:59:27;;;;;;;29.40;21.83;;;22.10;71.60;;;;;;5050904;28;20025;-69
2023/05/08 10:01:54;;;;;;;22.80;17.40;;;22.10;71.60;;;;;;5050708;28;20037;-70
2023/05/08 10:04:38;;;;;;;26.50;18.92;;;22.10;72.20;;;;;;5051116;28;20021;-69
2023/05/08 10:07:03;;;;;;;26.00;20.70;;;22.20;71.50;;;;;;5050183;28;20025;-70
2023/05/08 10:09:29;;;;;;;21.00;17.67;;;22.40;70.70;;;;;;5050490;28;20028;-71
2023/05/08 10:11:55;;;;;;;21.10;16.83;;;22.50;70.20;;;;;;5047799;28;20025;-70
2023/05/08 10:14:24;;;;;;;22.70;18.83;;;22.70;69.90;;;;;;5049627;28;20083;-70
2023/05/08 10:16:51;;;;;;;21.63;17.38;;;22.80;69.50;;;;;;5049030;28;20383;-71
2023/05/08 10:19:22;;;;;;;21.63;16.27;;;22.80;69.30;;;;;;5047048;28;20178;-70
2023/05/08 10:21:52;;;;;;;19.65;15.32;;;23.00;69.40;;;;;;5050106;28;20027;-70
2023/05/08 10:24:19;;;;;;;21.65;18.38;;;23.30;68.90;;;;;;5048171;28;20040;-70
2023/05/08 10:27:16;;;;;;;25.00;20.33;;;23.30;68.20;;;;;;5049477;28;20035;-69
2023/05/08 10:29:51;;;;;;;19.27;16.60;;;23.30;67.70;;;;;;5047554;28;20045;-70
2023/05/08 10:32:19;;;;;;;22.02;16.95;;;23.30;67.80;;;;;;5049134;28;20055;-70
2023/05/08 10:34:50;;;;;;;21.50;17.92;;;23.30;67.70;;;;;;5050025;28;20025;-70
2023/05/08 10:37:16;;;;;;;31.00;26.02;;;23.40;67.80;;;;;;5051864;28;20029;-70
2023/05/08 10:39:43;;;;;;;26.23;20.58;;;23.50;67.00;;;;;;5049740;28;20032;-69
2023/05/08 10:42:12;;;;;;;17.83;15.10;;;23.30;67.30;;;;;;5047907;28;20025;-70
2023/05/08 10:44:38;;;;;;;23.83;19.48;;;23.30;67.70;;;;;;5049606;28;20019;-70
2023/05/08 10:47:26;;;;;;;25.10;21.08;;;23.30;67.90;;;;;;5047550;28;20506;-70
2023/05/08 10:50:04;;;;;;;23.70;19.42;;;23.10;68.30;;;;;;5049586;28;20031;-70
2023/05/08 10:52:51;;;;;;;24.65;20.80;;;23.00;68.80;;;;;;5049743;28;20021;-70
2023/05/08 10:55:27;;;;;;;28.42;23.23;;;22.90;69.00;;;;;;5047428;28;20017;-70
2023/05/08 10:58:11;;;;;;;25.13;19.50;;;22.70;69.00;;;;;;5048802;28;20036;-70
2023/05/08 11:00:51;;;;;;;20.35;17.20;;;22.40;70.00;;;;;;5033277;28;20028;-71
2023/05/08 11:03:18;;;;;;;21.52;18.77;;;22.30;70.80;;;;;;5053881;28;20384;-70
2023/05/08 11:05:46;;;;;;;18.63;15.52;;;22.20;71.20;;;;;;5049374;28;20070;-69
2023/05/08 11:08:23;;;;;;;19.13;17.13;;;22.20;71.60;;;;;;5049466;28;20017;-69
2023/05/08 11:10:58;;;;;;;21.08;18.88;;;22.20;71.90;;;;;;5045950;28;20078;-70
2023/05/08 11:13:34;;;;;;;22.42;20.13;;;22.10;72.50;;;;;;5048785;28;20310;-69
2023/05/08 11:15:59;;;;;;;19.30;17.27;;;22.00;73.30;;;;;;5049250;28;20549;-69
2023/05/08 11:18:26;;;;;;;20.52;17.98;;;21.80;73.80;;;;;;5048192;28;20060;-70
2023/05/08 11:21:02;;;;;;;20.95;18.67;;;21.70;74.80;;;;;;5047976;28;20545;-69
2023/05/08 11:23:37;;;;;;;19.08;17.02;;;21.50;75.60;;;;;;5049170;28;20098;-69
2023/05/08 11:26:05;;;;;;;18.42;16.33;;;21.50;76.20;;;;;;5049328;28;20040;-70
2023/05/08 11:28:37;;;;;;;19.10;17.10;;;21.50;76.50;;;;;;5057490;28;20025;-70
2023/05/08 11:31:05;;;;;;;20.27;18.08;;;21.50;76.90;;;;;;5030348;28;20045;-70
2023/05/08 11:33:32;;;;;;;18.00;16.02;;;21.50;77.30;;;;;;5054365;28;20023;-69
2023/05/08 11:36:07;;;;;;;21.92;19.58;;;21.50;77.50;;;;;;5053495;28;20545;-70
2023/05/08 11:38:37;;;;;;;19.20;17.05;;;21.50;78.10;;;;;;5055863;28;20021;-68
2023/05/08 11:41:22;;;;;;;26.88;24.08;;;21.50;78.30;;;;;;5056275;28;20032;-70
2023/05/08 11:43:56;;;;;;;22.88;20.48;;;21.50;78.30;;;;;;5031708;28;20396;-71
2023/05/08 11:46:27;;;;;;;27.90;25.05;;;21.40;78.50;;;;;;5049832;28;20025;-71
2023/05/08 11:48:58;;;;;;;31.83;28.53;;;21.20;78.80;;;;;;5047811;28;20126;-69
2023/05/08 11:51:24;;;;;;;24.13;21.52;;;21.10;79.50;;;;;;5050868;28;20024;-71
2023/05/08 11:53:50;;;;;;;21.45;19.23;;;21.10;79.90;;;;;;5056134;28;20450;-70
2023/05/08 11:56:16;;;;;;;20.40;18.27;;;21.20;80.00;;;;;;5032726;28;20487;-71
2023/05/08 11:58:41;;;;;;;20.05;17.90;;;21.30;80.00;;;;;;5051172;28;20075;-69
2023/05/08 12:01:07;;;;;;;23.00;20.67;;;21.40;79.80;;;;;;5052373;28;20021;-71
2023/05/08 12:03:32;;;;;;;24.67;22.02;;;21.40;79.70;;;;;;5055344;28;20117;-70
2023/05/08 12:05:59;;;;;;;25.17;22.08;;;21.40;79.80;;;;;;5049011;28;20044;-70
2023/05/08 12:08:25;;;;;;;25.70;22.90;;;21.40;80.10;;;;;;5046548;28;20045;-70
2023/05/08 12:10:55;;;;;;;24.70;21.83;;;21.50;80.20;;;;;;5050223;28;20028;-71
2023/05/08 12:13:24;;;;;;;24.83;22.23;;;21.70;79.90;;;;;;5051245;28;20055;-71
2023/05/08 12:15:55;;;;;;;20.85;18.48;;;21.70;79.10;;;;;;5035251;28;20657;-71
2023/05/08 12:18:22;;;;;;;24.23;21.58;;;21.80;78.80;;;;;;5033786;28;20064;-72
2023/05/08 12:21:06;;;;;;;30.27;26.95;;;21.90;78.60;;;;;;5053028;28;20040;-71
2023/05/08 12:23:32;;;;;;;23.65;21.13;;;21.90;78.40;;;;;;5052743;28;20032;-72
2023/05/08 12:25:59;;;;;;;23.25;20.88;;;22.10;78.40;;;;;;5042441;28;20032;-71
2023/05/08 12:28:25;;;;;;;24.08;21.58;;;22.20;78.00;;;;;;5056381;28;20036;-70
2023/05/08 12:30:51;;;;;;;32.35;29.05;;;22.20;77.60;;;;;;5052302;28;20488;-70
2023/05/08 12:33:18;;;;;;;25.00;22.30;;;21.90;77.70;;;;;;5051358;28;20029;-69
2023/05/08 12:35:44;;;;;;;23.30;20.90;;;22.00;78.00;;;;;;5052768;28;20029;-70
2023/05/08 12:38:10;;;;;;;25.65;22.95;;;21.90;78.20;;;;;;5053979;28;20020;-68